createdAt,value
2023-04-21T00:00:36.893Z,2.32
2023-04-21T00:01:36.879Z,2.28
2023-04-21T00:02:36.972Z,2.31
2023-04-21T00:03:37.208Z,2.32
2023-04-21T00:04:37.127Z,2.34
2023-04-21T00:05:37.119Z,2.29
2023-04-21T00:06:36.974Z,2.29
2023-04-21T00:07:36.980Z,2.34
2023-04-21T00:08:37.016Z,2.35
2023-04-21T00:09:36.997Z,2.27
2023-04-21T00:10:36.974Z,2.28
2023-04-21T00:11:37.008Z,2.29
2023-04-21T00:12:37.022Z,2.27
2023-04-21T00:13:37.022Z,2.31
2023-04-21T00:14:37.030Z,2.31
2023-04-21T00:15:37.060Z,2.29
2023-04-21T00:16:37.162Z,2.25
2023-04-21T00:17:37.110Z,2.28
2023-04-21T00:18:37.066Z,2.26
2023-04-21T00:19:37.076Z,2.29
2023-04-21T00:20:37.091Z,2.23
2023-04-21T00:21:37.109Z,2.27
2023-04-21T00:22:37.091Z,2.27
2023-04-21T00:23:37.096Z,2.26
2023-04-21T00:24:37.117Z,2.23
2023-04-21T00:25:37.126Z,2.19
2023-04-21T00:26:37.112Z,2.26
2023-04-21T00:27:37.120Z,2.21
2023-04-21T00:28:37.118Z,2.26
2023-04-21T00:29:37.132Z,2.18
2023-04-21T00:30:37.169Z,2.18
2023-04-21T00:31:37.166Z,2.22
2023-04-21T00:32:37.179Z,2.18
2023-04-21T00:33:37.143Z,2.16
2023-04-21T00:34:37.147Z,2.18
2023-04-21T00:35:37.134Z,2.21
2023-04-21T00:36:37.145Z,2.20
2023-04-21T00:37:37.130Z,2.17
2023-04-21T00:38:37.132Z,2.16
2023-04-21T00:39:37.140Z,2.18
2023-04-21T00:40:37.169Z,2.21
2023-04-21T00:41:37.146Z,2.18
2023-04-21T00:42:37.161Z,2.16
2023-04-21T00:43:37.192Z,2.15
2023-04-21T00:44:37.174Z,2.14
2023-04-21T00:45:37.194Z,2.13
2023-04-21T00:46:37.272Z,2.12
2023-04-21T00:47:37.267Z,2.14
2023-04-21T00:48:37.271Z,2.12
2023-04-21T00:49:37.297Z,2.11
2023-04-21T00:50:37.307Z,2.11
2023-04-21T00:51:37.336Z,2.11
2023-04-21T00:52:37.403Z,2.10
2023-04-21T00:53:37.407Z,2.13
2023-04-21T00:54:37.433Z,2.16
2023-04-21T00:55:37.458Z,2.14
2023-04-21T00:56:37.476Z,2.09
2023-04-21T00:57:37.502Z,2.09
2023-04-21T00:58:37.535Z,2.12
2023-04-21T00:59:37.568Z,2.08
2023-04-21T01:00:37.654Z,2.11
2023-04-21T01:01:37.592Z,2.04
2023-04-21T01:02:37.843Z,2.09
2023-04-21T01:03:37.915Z,2.10
2023-04-21T01:04:37.688Z,2.05
2023-04-21T01:05:37.722Z,2.07
2023-04-21T01:06:37.752Z,2.03
2023-04-21T01:07:37.780Z,2.07
2023-04-21T01:08:37.797Z,2.05
2023-04-21T01:09:37.823Z,2.04
2023-04-21T01:10:37.836Z,2.07
2023-04-21T01:11:37.877Z,2.10
2023-04-21T01:12:37.913Z,2.01
2023-04-21T01:13:37.925Z,2.03
2023-04-21T01:14:37.925Z,2.02
2023-04-21T01:15:37.968Z,2.04
2023-04-21T01:16:38.018Z,2.04
2023-04-21T01:17:38.039Z,2.03
2023-04-21T01:18:38.054Z,1.98
2023-04-21T01:19:38.027Z,1.99
2023-04-21T01:20:38.071Z,2.04
2023-04-21T01:21:38.104Z,2.01
2023-04-21T01:22:38.116Z,2.03
2023-04-21T01:23:38.153Z,2.01
2023-04-21T01:24:38.199Z,2.01
2023-04-21T01:25:38.229Z,2.02
2023-04-21T01:26:38.210Z,2.02
2023-04-21T01:27:38.256Z,2.01
2023-04-21T01:28:38.271Z,1.98
2023-04-21T01:29:38.288Z,2.02
2023-04-21T01:30:38.309Z,2.01
2023-04-21T01:31:38.344Z,1.98
2023-04-21T01:32:38.392Z,2.00
2023-04-21T01:33:38.423Z,2.02
2023-04-21T01:34:38.425Z,1.97
2023-04-21T01:35:38.476Z,1.97
2023-04-21T01:36:38.495Z,1.94
2023-04-21T01:37:38.495Z,1.97
2023-04-21T01:38:38.544Z,1.93
2023-04-21T01:39:38.575Z,1.95
2023-04-21T01:40:38.606Z,1.93
2023-04-21T01:41:38.612Z,1.92
2023-04-21T01:42:38.659Z,1.88
2023-04-21T01:43:38.675Z,1.88
2023-04-21T01:44:38.708Z,1.94
2023-04-21T01:45:38.742Z,1.87
2023-04-21T01:46:38.749Z,1.90
2023-04-21T01:47:38.819Z,1.92
2023-04-21T01:48:38.785Z,1.87
2023-04-21T01:49:38.807Z,1.88
2023-04-21T01:50:38.798Z,1.83
2023-04-21T01:51:38.818Z,1.90
2023-04-21T01:52:38.846Z,1.83
2023-04-21T01:53:38.853Z,1.83
2023-04-21T01:54:38.877Z,1.89
2023-04-21T01:55:38.872Z,1.80
2023-04-21T01:56:38.918Z,1.82
2023-04-21T01:57:38.875Z,1.80
2023-04-21T01:58:38.909Z,1.77
2023-04-21T01:59:38.940Z,1.79
2023-04-21T02:00:38.961Z,1.76
2023-04-21T02:01:38.975Z,1.75
2023-04-21T02:02:39.074Z,1.74
2023-04-21T02:03:39.085Z,1.72
2023-04-21T02:04:39.152Z,1.74
2023-04-21T02:05:38.966Z,1.70
2023-04-21T02:06:39.005Z,1.71
2023-04-21T02:07:39.029Z,1.69
2023-04-21T02:08:39.051Z,1.70
2023-04-21T02:09:39.058Z,1.70
2023-04-21T02:10:39.070Z,1.68
2023-04-21T02:11:39.099Z,1.67
2023-04-21T02:12:39.118Z,1.66
2023-04-21T02:13:39.167Z,1.68
2023-04-21T02:14:39.246Z,1.64
2023-04-21T02:15:39.298Z,1.65
2023-04-21T02:16:39.404Z,1.63
2023-04-21T02:17:39.474Z,1.65
2023-04-21T02:18:39.496Z,1.62
2023-04-21T02:19:39.562Z,1.60
2023-04-21T02:20:39.609Z,1.65
2023-04-21T02:21:39.660Z,1.61
2023-04-21T02:22:39.764Z,1.61
2023-04-21T02:23:39.844Z,1.61
2023-04-21T02:24:39.847Z,1.62
2023-04-21T02:25:39.956Z,1.61
2023-04-21T02:26:40.024Z,1.57
2023-04-21T02:27:40.054Z,1.61
2023-04-21T02:28:40.129Z,1.58
2023-04-21T02:29:40.198Z,1.61
2023-04-21T02:30:42.082Z,1.60
2023-04-21T02:31:53.781Z,1.59
2023-04-21T02:32:41.328Z,1.59
2023-04-21T02:33:40.281Z,1.59
2023-04-21T02:34:40.265Z,1.59
2023-04-21T02:35:40.274Z,1.57
2023-04-21T02:36:40.290Z,1.58
2023-04-21T02:37:40.292Z,1.57
2023-04-21T02:38:40.251Z,1.54
2023-04-21T02:39:40.229Z,1.55
2023-04-21T02:40:40.277Z,1.56
2023-04-21T02:41:40.256Z,1.57
2023-04-21T02:42:40.265Z,1.53
2023-04-21T02:43:40.321Z,1.54
2023-04-21T02:44:40.353Z,1.53
2023-04-21T02:45:40.401Z,1.50
2023-04-21T02:46:40.523Z,1.56
2023-04-21T02:47:40.562Z,1.49
2023-04-21T02:48:40.574Z,1.53
2023-04-21T02:49:40.621Z,1.48
2023-04-21T02:50:40.649Z,1.50
2023-04-21T02:51:40.695Z,1.48
2023-04-21T02:52:40.726Z,1.50
2023-04-21T02:53:40.826Z,1.51
2023-04-21T02:54:40.881Z,1.48
2023-04-21T02:55:40.908Z,1.49
2023-04-21T02:56:40.956Z,1.50
2023-04-21T02:57:41.107Z,1.52
2023-04-21T02:58:41.077Z,1.49
2023-04-21T02:59:41.101Z,1.48
2023-04-21T03:00:41.198Z,1.46
2023-04-21T03:01:41.201Z,1.48
2023-04-21T03:02:41.331Z,1.49
2023-04-21T03:03:41.359Z,1.49
2023-04-21T03:04:41.412Z,1.47
2023-04-21T03:05:41.406Z,1.48
2023-04-21T03:06:41.435Z,1.45
2023-04-21T03:07:41.483Z,1.45
2023-04-21T03:08:41.551Z,1.44
2023-04-21T03:09:41.593Z,1.45
2023-04-21T03:10:41.631Z,1.46
2023-04-21T03:11:41.720Z,1.41
2023-04-21T03:12:41.704Z,1.43
2023-04-21T03:13:41.773Z,1.45
2023-04-21T03:14:41.783Z,1.43
2023-04-21T03:15:41.835Z,1.45
2023-04-21T03:16:41.886Z,1.40
2023-04-21T03:17:41.935Z,1.43
2023-04-21T03:18:42.004Z,1.42
2023-04-21T03:19:42.017Z,1.41
2023-04-21T03:20:42.053Z,1.38
2023-04-21T03:21:42.077Z,1.38
2023-04-21T03:22:42.117Z,1.39
2023-04-21T03:23:42.160Z,1.39
2023-04-21T03:24:42.222Z,1.39
2023-04-21T03:25:42.257Z,1.39
2023-04-21T03:26:42.288Z,1.42
2023-04-21T03:27:42.327Z,1.37
2023-04-21T03:28:42.370Z,1.40
2023-04-21T03:29:42.407Z,1.41
2023-04-21T03:30:42.444Z,1.38
2023-04-21T03:31:42.495Z,1.40
2023-04-21T03:32:42.563Z,1.36
2023-04-21T03:33:42.510Z,1.37
2023-04-21T03:34:42.540Z,1.38
2023-04-21T03:35:42.542Z,1.40
2023-04-21T03:36:42.611Z,1.36
2023-04-21T03:37:42.603Z,1.38
2023-04-21T03:38:42.677Z,1.36
2023-04-21T03:39:42.654Z,1.37
2023-04-21T03:40:42.721Z,1.37
2023-04-21T03:41:42.740Z,1.37
2023-04-21T03:42:42.735Z,1.36
2023-04-21T03:43:42.761Z,1.36
2023-04-21T03:44:42.790Z,1.35
2023-04-21T03:45:42.851Z,1.34
2023-04-21T03:46:42.970Z,1.36
2023-04-21T03:47:42.971Z,1.37
2023-04-21T03:48:42.956Z,1.33
2023-04-21T03:49:42.944Z,1.34
2023-04-21T03:50:42.994Z,1.37
2023-04-21T03:51:43.058Z,1.35
2023-04-21T03:52:43.064Z,1.32
2023-04-21T03:53:43.426Z,1.35
2023-04-21T03:54:43.132Z,1.32
2023-04-21T03:55:43.128Z,1.30
2023-04-21T03:56:43.171Z,1.33
2023-04-21T03:57:43.222Z,1.32
2023-04-21T03:58:43.230Z,1.31
2023-04-21T03:59:43.221Z,1.28
2023-04-21T04:00:43.277Z,1.34
2023-04-21T04:01:43.296Z,1.33
2023-04-21T04:02:43.468Z,1.31
2023-04-21T04:03:43.492Z,1.30
2023-04-21T04:04:43.723Z,1.32
2023-04-21T04:05:43.473Z,1.31
2023-04-21T04:06:43.413Z,1.32
2023-04-21T04:07:43.455Z,1.31
2023-04-21T04:08:43.515Z,1.30
2023-04-21T04:09:43.481Z,1.31
2023-04-21T04:10:43.560Z,1.31
2023-04-21T04:11:43.583Z,1.30
2023-04-21T04:12:43.594Z,1.29
2023-04-21T04:13:43.586Z,1.26
2023-04-21T04:14:43.653Z,1.27
2023-04-21T04:15:43.755Z,1.29
2023-04-21T04:16:43.684Z,1.29
2023-04-21T04:17:43.712Z,1.28
2023-04-21T04:18:43.708Z,1.26
2023-04-21T04:19:43.745Z,1.27
2023-04-21T04:20:43.739Z,1.26
2023-04-21T04:21:43.785Z,1.26
2023-04-21T04:22:43.787Z,1.26
2023-04-21T04:23:43.788Z,1.27
2023-04-21T04:24:43.849Z,1.27
2023-04-21T04:25:43.867Z,1.24
2023-04-21T04:26:43.857Z,1.24
2023-04-21T04:27:43.905Z,1.25
2023-04-21T04:28:43.921Z,1.24
2023-04-21T04:29:43.956Z,1.24
2023-04-21T04:30:43.952Z,1.24
2023-04-21T04:31:44.016Z,1.23
2023-04-21T04:32:44.078Z,1.25
2023-04-21T04:33:44.011Z,1.23
2023-04-21T04:34:44.054Z,1.23
2023-04-21T04:35:44.075Z,1.25
2023-04-21T04:36:44.074Z,1.23
2023-04-21T04:37:44.108Z,1.24
2023-04-21T04:38:44.132Z,1.23
2023-04-21T04:39:44.153Z,1.24
2023-04-21T04:40:44.182Z,1.26
2023-04-21T04:41:44.190Z,1.21
2023-04-21T04:42:44.204Z,1.21
2023-04-21T04:43:44.204Z,1.24
2023-04-21T04:44:44.223Z,1.23
2023-04-21T04:45:44.256Z,1.23
2023-04-21T04:46:44.269Z,1.21
2023-04-21T04:47:44.341Z,1.23
2023-04-21T04:48:44.324Z,1.23
2023-04-21T04:49:44.330Z,1.21
2023-04-21T04:50:44.350Z,1.19
2023-04-21T04:51:44.360Z,1.22
2023-04-21T04:52:44.374Z,1.24
2023-04-21T04:53:44.402Z,1.22
2023-04-21T04:54:44.422Z,1.17
2023-04-21T04:55:44.428Z,1.21
2023-04-21T04:56:44.435Z,1.20
2023-04-21T04:57:44.472Z,1.22
2023-04-21T04:58:44.489Z,1.21
2023-04-21T04:59:44.491Z,1.19
2023-04-21T05:00:44.573Z,1.18
2023-04-21T05:01:44.565Z,1.19
2023-04-21T05:02:44.792Z,1.18
2023-04-21T05:03:44.804Z,1.21
2023-04-21T05:04:44.746Z,1.21
2023-04-21T05:05:44.642Z,1.22
2023-04-21T05:06:44.634Z,1.21
2023-04-21T05:07:44.640Z,1.20
2023-04-21T05:08:44.697Z,1.21
2023-04-21T05:09:44.689Z,1.19
2023-04-21T05:10:44.779Z,1.19
2023-04-21T05:11:44.713Z,1.18
2023-04-21T05:12:44.745Z,1.19
2023-04-21T05:13:44.769Z,1.19
2023-04-21T05:14:44.786Z,1.17
2023-04-21T05:15:44.800Z,1.20
2023-04-21T05:16:44.888Z,1.59
2023-04-21T05:17:44.910Z,1.57
2023-04-21T05:18:44.891Z,1.70
2023-04-21T05:19:44.890Z,1.72
2023-04-21T05:20:44.882Z,1.76
2023-04-21T05:21:44.934Z,1.67
2023-04-21T05:22:44.953Z,1.72
2023-04-21T05:23:44.979Z,1.70
2023-04-21T05:24:45.044Z,1.67
2023-04-21T05:25:45.006Z,1.64
2023-04-21T05:26:45.085Z,1.65
2023-04-21T05:27:45.094Z,1.64
2023-04-21T05:28:45.159Z,1.59
2023-04-21T05:29:45.171Z,1.60
2023-04-21T05:30:45.226Z,1.55
2023-04-21T05:31:45.265Z,1.53
2023-04-21T05:32:45.351Z,1.55
2023-04-21T05:33:45.510Z,1.48
2023-04-21T05:34:45.478Z,1.36
2023-04-21T05:35:45.442Z,1.40
2023-04-21T05:36:45.576Z,1.41
2023-04-21T05:37:45.548Z,1.48
2023-04-21T05:38:45.969Z,1.44
2023-04-21T05:39:45.986Z,1.38
2023-04-21T05:40:45.729Z,1.44
2023-04-21T05:41:45.775Z,1.49
2023-04-21T05:42:45.921Z,1.42
2023-04-21T05:43:45.853Z,1.36
2023-04-21T05:44:45.992Z,1.33
2023-04-21T05:45:53.057Z,1.33
2023-04-21T05:46:45.964Z,1.33
2023-04-21T05:47:46.040Z,1.35
2023-04-21T05:48:45.993Z,1.38
2023-04-21T05:49:45.968Z,1.47
2023-04-21T05:50:45.965Z,2.07
2023-04-21T05:51:45.974Z,7.98
2023-04-21T05:52:45.919Z,28.74
2023-04-21T05:53:45.957Z,31.46
2023-04-21T05:54:45.931Z,16.44
2023-04-21T05:55:45.941Z,7.48
2023-04-21T05:56:45.909Z,5.56
2023-04-21T05:57:45.871Z,4.63
2023-04-21T05:58:45.911Z,4.16
2023-04-21T05:59:45.963Z,4.38
2023-04-21T06:00:47.821Z,23.80
2023-04-21T06:01:45.833Z,19.15
2023-04-21T06:02:45.930Z,14.13
2023-04-21T06:03:46.072Z,14.90
2023-04-21T06:04:45.989Z,22.74
2023-04-21T06:05:45.895Z,93.50
2023-04-21T06:06:45.754Z,87.40
2023-04-21T06:07:45.742Z,32.77
2023-04-21T06:08:45.720Z,49.16
2023-04-21T06:09:45.676Z,73.01
2023-04-21T06:10:45.644Z,54.62
2023-04-21T06:11:45.635Z,37.79
2023-04-21T06:12:45.590Z,39.16
2023-04-21T06:13:45.570Z,40.04
2023-04-21T06:14:45.587Z,34.13
2023-04-21T06:15:45.544Z,160.61
2023-04-21T06:16:45.621Z,115.17
2023-04-21T06:17:45.592Z,211.48
2023-04-21T06:18:45.454Z,111.78
2023-04-21T06:19:45.431Z,61.68
2023-04-21T06:20:45.397Z,57.39
2023-04-21T06:21:45.375Z,36.41
2023-04-21T06:22:45.359Z,25.29
2023-04-21T06:23:45.342Z,26.27
2023-04-21T06:24:45.346Z,37.09
2023-04-21T06:25:45.316Z,52.81
2023-04-21T06:26:45.254Z,52.82
2023-04-21T06:27:45.270Z,58.91
2023-04-21T06:28:45.198Z,56.20
2023-04-21T06:29:45.192Z,72.47
2023-04-21T06:30:45.172Z,41.50
2023-04-21T06:31:45.212Z,32.17
2023-04-21T06:32:45.146Z,31.15
2023-04-21T06:33:45.099Z,32.95
2023-04-21T06:34:45.098Z,35.93
2023-04-21T06:35:45.059Z,25.35
2023-04-21T06:36:45.017Z,19.38
2023-04-21T06:37:45.023Z,17.18
2023-04-21T06:38:45.034Z,16.41
2023-04-21T06:39:45.003Z,15.02
2023-04-21T06:40:44.937Z,14.38
2023-04-21T06:41:45.135Z,13.75
2023-04-21T06:42:44.917Z,23.45
2023-04-21T06:43:44.866Z,29.35
2023-04-21T06:44:44.826Z,29.04
2023-04-21T06:45:44.800Z,36.27
2023-04-21T06:46:44.917Z,47.35
2023-04-21T06:47:44.918Z,37.63
2023-04-21T06:48:44.947Z,32.46
2023-04-21T06:49:44.980Z,24.88
2023-04-21T06:50:45.022Z,26.69
2023-04-21T06:51:45.035Z,25.71
2023-04-21T06:52:45.066Z,23.54
2023-04-21T06:53:45.088Z,21.62
2023-04-21T06:54:45.151Z,20.56
2023-04-21T06:55:45.197Z,19.50
2023-04-21T06:56:45.219Z,18.98
2023-04-21T06:57:45.267Z,18.83
2023-04-21T06:58:45.293Z,18.75
2023-04-21T06:59:45.338Z,18.18
2023-04-21T07:00:45.390Z,17.85
2023-04-21T07:01:45.396Z,22.19
2023-04-21T07:02:45.530Z,18.03
2023-04-21T07:03:45.603Z,17.25
2023-04-21T07:04:45.626Z,16.80
2023-04-21T07:05:45.558Z,14.89
2023-04-21T07:06:45.588Z,13.24
2023-04-21T07:07:45.640Z,12.64
2023-04-21T07:08:45.651Z,11.84
2023-04-21T07:09:45.658Z,10.90
2023-04-21T07:10:45.646Z,10.54
2023-04-21T07:11:45.645Z,9.90
2023-04-21T07:12:45.961Z,9.61
2023-04-21T07:13:45.699Z,9.31
2023-04-21T07:14:45.732Z,9.10
2023-04-21T07:15:45.722Z,8.74
2023-04-21T07:16:45.770Z,8.60
2023-04-21T07:17:45.885Z,8.41
2023-04-21T07:18:45.869Z,8.27
2023-04-21T07:19:45.920Z,8.01
2023-04-21T07:20:45.981Z,7.84
2023-04-21T07:21:45.985Z,7.59
2023-04-21T07:22:46.020Z,7.45
2023-04-21T07:23:46.064Z,7.28
2023-04-21T07:24:46.067Z,7.15
2023-04-21T07:25:46.096Z,6.95
2023-04-21T07:26:46.139Z,7.31
2023-04-21T07:27:46.108Z,6.71
2023-04-21T07:28:46.164Z,7.08
2023-04-21T07:29:46.142Z,5.63
2023-04-21T07:30:46.215Z,5.18
2023-04-21T07:31:46.161Z,4.21
2023-04-21T07:32:46.215Z,3.53
2023-04-21T07:33:46.185Z,3.35
2023-04-21T07:34:46.180Z,2.97
2023-04-21T07:35:46.192Z,2.77
2023-04-21T07:36:46.227Z,2.46
2023-04-21T07:37:46.223Z,2.33
2023-04-21T07:38:46.311Z,2.30
2023-04-21T07:39:46.336Z,2.25
2023-04-21T07:40:46.384Z,2.24
2023-04-21T07:41:46.385Z,2.22
2023-04-21T07:42:46.425Z,2.06
2023-04-21T07:43:46.485Z,1.52
2023-04-21T07:44:46.574Z,1.33
2023-04-21T07:45:46.599Z,1.12
2023-04-21T07:46:46.577Z,0.80
2023-04-21T07:47:46.699Z,0.81
2023-04-21T07:48:46.643Z,0.89
2023-04-21T07:49:46.692Z,0.94
2023-04-21T07:50:46.752Z,0.95
2023-04-21T07:51:46.832Z,0.93
2023-04-21T07:52:46.890Z,0.85
2023-04-21T07:53:47.040Z,0.70
2023-04-21T07:54:47.104Z,0.65
2023-04-21T07:55:47.136Z,0.66
2023-04-21T07:56:47.155Z,0.67
2023-04-21T07:57:47.225Z,0.63
2023-04-21T07:58:47.525Z,0.61
2023-04-21T07:59:47.308Z,0.62
2023-04-21T08:00:47.267Z,0.62
2023-04-21T08:01:47.271Z,0.62
2023-04-21T08:02:47.455Z,0.61
2023-04-21T08:03:47.682Z,0.64
2023-04-21T08:04:47.539Z,0.67
2023-04-21T08:05:47.744Z,0.66
2023-04-21T08:06:47.558Z,0.67
2023-04-21T08:07:47.597Z,0.63
2023-04-21T08:08:47.638Z,0.61
2023-04-21T08:09:48.049Z,0.57
2023-04-21T08:10:47.746Z,0.56
2023-04-21T08:11:47.755Z,0.59
2023-04-21T08:12:47.828Z,0.56
2023-04-21T08:13:47.861Z,0.51
2023-04-21T08:14:48.322Z,0.54
2023-04-21T08:15:47.972Z,0.56
2023-04-21T08:16:48.091Z,0.56
2023-04-21T08:17:48.136Z,0.61
2023-04-21T08:18:48.430Z,0.62
2023-04-21T08:19:48.571Z,0.64
2023-04-21T08:20:48.194Z,0.61
2023-04-21T08:21:48.204Z,0.52
2023-04-21T08:22:48.555Z,0.53
2023-04-21T08:23:48.288Z,0.53
2023-04-21T08:24:48.341Z,0.51
2023-04-21T08:25:48.528Z,0.52
2023-04-21T08:26:48.445Z,0.51
2023-04-21T08:27:48.447Z,0.50
2023-04-21T08:28:48.511Z,0.53
2023-04-21T08:29:48.633Z,0.56
2023-04-21T08:30:49.131Z,0.59
2023-04-21T08:31:48.751Z,0.61
2023-04-21T08:32:48.813Z,0.63
2023-04-21T08:34:00.315Z,0.61
2023-04-21T08:34:49.820Z,0.61
2023-04-21T08:36:02.301Z,0.60
2023-04-21T08:36:49.878Z,0.55
2023-04-21T08:37:49.751Z,0.51
2023-04-21T08:38:48.855Z,0.52
2023-04-21T08:39:48.797Z,0.48
2023-04-21T08:40:48.885Z,0.48
2023-04-21T08:41:48.778Z,0.52
2023-04-21T08:42:48.796Z,0.50
2023-04-21T08:43:48.770Z,0.55
2023-04-21T08:44:48.817Z,0.53
2023-04-21T08:45:48.942Z,0.51
2023-04-21T08:46:48.950Z,0.54
2023-04-21T08:47:49.108Z,0.53
2023-04-21T08:48:49.066Z,0.51
2023-04-21T08:49:49.111Z,0.50
2023-04-21T08:50:49.565Z,0.50
2023-04-21T08:51:49.219Z,0.52
2023-04-21T08:52:49.203Z,0.57
2023-04-21T08:53:49.203Z,0.62
2023-04-21T08:54:49.232Z,0.69
2023-04-21T08:55:53.683Z,0.68
2023-04-21T08:56:50.247Z,0.59
2023-04-21T08:57:49.263Z,0.58
2023-04-21T08:58:49.255Z,0.58
2023-04-21T08:59:49.274Z,0.59
2023-04-21T09:00:49.625Z,0.63
2023-04-21T09:01:49.261Z,0.67
2023-04-21T09:02:57.133Z,0.74
2023-04-21T09:03:50.342Z,0.67
2023-04-21T09:04:49.478Z,0.63
2023-04-21T09:05:49.487Z,0.65
2023-04-21T09:06:49.300Z,0.64
2023-04-21T09:07:49.138Z,0.71
2023-04-21T09:08:49.141Z,0.75
2023-04-21T09:09:49.133Z,0.80
2023-04-21T09:10:49.103Z,0.78
2023-04-21T09:11:49.107Z,0.76
2023-04-21T09:12:49.130Z,0.73
2023-04-21T09:13:49.177Z,0.68
2023-04-21T09:14:49.220Z,0.70
2023-04-21T09:15:49.268Z,0.90
2023-04-21T09:16:49.376Z,0.71
2023-04-21T09:17:49.393Z,0.63
2023-04-21T09:18:49.380Z,0.50
2023-04-21T09:19:49.414Z,0.55
2023-04-21T09:20:49.678Z,0.61
2023-04-21T09:21:49.544Z,0.59
2023-04-21T09:22:49.609Z,0.52
2023-04-21T09:23:49.670Z,0.51
2023-04-21T09:24:49.700Z,0.51
2023-04-21T09:25:49.668Z,0.50
2023-04-21T09:26:49.640Z,0.59
2023-04-21T09:27:49.656Z,0.74
2023-04-21T09:28:49.695Z,0.83
2023-04-21T09:29:49.694Z,0.71
2023-04-21T09:30:49.835Z,0.77
2023-04-21T09:31:49.826Z,0.76
2023-04-21T09:32:49.949Z,0.76
2023-04-21T09:33:57.908Z,0.96
2023-04-21T09:34:50.924Z,0.96
2023-04-21T09:35:49.922Z,0.97
2023-04-21T09:36:49.884Z,1.01
2023-04-21T09:37:49.899Z,1.07
2023-04-21T09:38:50.163Z,0.89
2023-04-21T09:40:03.317Z,0.80
2023-04-21T09:40:51.068Z,0.81
2023-04-21T09:41:49.843Z,0.83
2023-04-21T09:42:49.798Z,0.75
2023-04-21T09:43:49.777Z,0.41
2023-04-21T09:44:53.791Z,0.36
2023-04-21T09:45:50.776Z,0.52
2023-04-21T09:46:49.890Z,0.65
2023-04-21T09:47:49.777Z,0.74
2023-04-21T09:48:49.736Z,0.79
2023-04-21T09:49:49.736Z,0.79
2023-04-21T09:52:50.637Z,0.59
2023-04-21T09:53:49.632Z,0.60
2023-04-21T09:54:49.610Z,0.55
2023-04-21T09:55:49.599Z,0.46
2023-04-21T09:56:49.601Z,0.53
2023-04-21T09:57:49.542Z,0.51
2023-04-21T09:58:49.515Z,0.51
2023-04-21T09:59:49.500Z,0.51
2023-04-21T10:00:49.495Z,0.55
2023-04-21T10:01:49.635Z,0.45
2023-04-21T10:02:49.504Z,0.42
2023-04-21T10:03:49.519Z,0.53
2023-04-21T10:04:49.612Z,0.47
2023-04-21T10:05:49.371Z,0.35
2023-04-21T10:06:49.297Z,0.34
2023-04-21T10:07:49.271Z,0.34
2023-04-21T10:08:49.273Z,0.38
2023-04-21T10:09:49.290Z,0.34
2023-04-21T10:10:49.242Z,0.36
2023-04-21T10:11:49.214Z,0.42
2023-04-21T10:12:49.235Z,0.58
2023-04-21T10:13:49.173Z,0.71
2023-04-21T10:14:49.143Z,0.89
2023-04-21T10:15:49.185Z,0.69
2023-04-21T10:16:49.216Z,0.92
2023-04-21T10:17:49.163Z,0.99
2023-04-21T10:18:49.101Z,1.09
2023-04-21T10:19:49.075Z,1.52
2023-04-21T10:20:49.035Z,1.77
2023-04-21T10:21:49.075Z,2.10
2023-04-21T10:22:48.960Z,2.43
2023-04-21T10:23:49.023Z,2.70
2023-04-21T10:24:49.056Z,2.91
2023-04-21T10:25:49.085Z,3.03
2023-04-21T10:26:49.148Z,3.22
2023-04-21T10:27:49.189Z,3.56
2023-04-21T10:28:49.194Z,3.57
2023-04-21T10:30:50.183Z,3.71
2023-04-21T10:31:49.193Z,3.76
2023-04-21T10:32:49.225Z,3.83
2023-04-21T10:33:49.114Z,4.02
2023-04-21T10:34:49.072Z,4.44
2023-04-21T10:35:49.086Z,4.65
2023-04-21T10:36:49.106Z,4.74
2023-04-21T10:37:49.059Z,4.67
2023-04-21T10:38:48.988Z,4.91
2023-04-21T10:39:48.960Z,5.18
2023-04-21T10:40:48.911Z,5.32
2023-04-21T10:41:49.105Z,5.51
2023-04-21T10:42:48.982Z,5.49
2023-04-21T10:43:49.979Z,5.62
2023-04-21T10:44:49.026Z,5.84
2023-04-21T10:45:49.072Z,5.82
2023-04-21T10:46:49.175Z,5.85
2023-04-21T10:47:49.307Z,5.93
2023-04-21T10:48:49.115Z,6.13
2023-04-21T10:49:49.126Z,6.26
2023-04-21T10:50:49.151Z,6.30
2023-04-21T10:51:49.169Z,6.47
2023-04-21T10:52:49.174Z,6.59
2023-04-21T10:53:49.220Z,6.65
2023-04-21T10:54:49.223Z,6.79
2023-04-21T10:55:49.228Z,6.89
2023-04-21T10:56:49.625Z,6.92
2023-04-21T10:57:49.298Z,6.81
2023-04-21T10:58:49.296Z,6.88
2023-04-21T10:59:49.328Z,6.90
2023-04-21T11:00:49.344Z,6.94
2023-04-21T11:01:49.605Z,7.03
2023-04-21T11:02:49.367Z,7.04
2023-04-21T11:03:49.534Z,7.03
2023-04-21T11:04:49.702Z,7.33
2023-04-21T11:05:49.382Z,7.29
2023-04-21T11:06:49.381Z,7.27
2023-04-21T11:07:50.638Z,7.33
2023-04-21T11:08:49.398Z,7.38
2023-04-21T11:09:49.499Z,7.37
2023-04-21T11:10:49.423Z,7.34
2023-04-21T11:11:49.429Z,7.17
2023-04-21T11:12:49.615Z,7.16
2023-04-21T11:13:49.492Z,7.14
2023-04-21T11:14:49.499Z,7.07
2023-04-21T11:15:49.523Z,7.09
2023-04-21T11:16:50.676Z,7.12
2023-04-21T11:17:49.582Z,7.09
2023-04-21T11:18:49.609Z,7.03
2023-04-21T11:19:50.065Z,7.16
2023-04-21T11:20:49.591Z,7.13
2023-04-21T11:21:49.586Z,7.29
2023-04-21T11:22:49.598Z,7.34
2023-04-21T11:23:49.604Z,7.41
2023-04-21T11:24:49.632Z,7.40
2023-04-21T11:25:50.897Z,7.38
2023-04-21T11:26:49.618Z,7.50
2023-04-21T11:27:50.124Z,7.38
2023-04-21T11:28:49.700Z,7.07
2023-04-21T11:29:49.651Z,7.15
2023-04-21T11:30:49.750Z,7.12
2023-04-21T11:31:49.717Z,7.33
2023-04-21T11:32:50.144Z,7.37
2023-04-21T11:33:49.762Z,7.30
2023-04-21T11:34:49.794Z,7.32
2023-04-21T11:35:49.802Z,7.51
2023-04-21T11:36:49.828Z,7.12
2023-04-21T11:37:50.029Z,7.14
2023-04-21T11:38:49.860Z,7.20
2023-04-21T11:39:49.896Z,6.97
2023-04-21T11:40:49.931Z,6.68
2023-04-21T11:41:49.960Z,6.68
2023-04-21T11:42:50.011Z,6.67
2023-04-21T11:43:50.010Z,6.75
2023-04-21T11:44:50.018Z,6.61
2023-04-21T11:45:50.069Z,6.79
2023-04-21T11:46:50.065Z,6.85
2023-04-21T11:47:50.130Z,6.66
2023-04-21T11:48:50.088Z,6.28
2023-04-21T11:49:50.118Z,6.18
2023-04-21T11:50:50.127Z,6.47
2023-04-21T11:51:50.168Z,6.52
2023-04-21T11:52:50.192Z,6.34
2023-04-21T11:53:50.253Z,6.20
2023-04-21T11:54:50.247Z,6.08
2023-04-21T11:55:50.300Z,6.17
2023-04-21T11:56:50.301Z,6.12
2023-04-21T11:57:50.309Z,6.00
2023-04-21T11:58:50.369Z,5.95
2023-04-21T11:59:50.386Z,5.92
2023-04-21T12:00:50.395Z,6.07
2023-04-21T12:01:50.466Z,5.92
2023-04-21T12:02:50.561Z,5.85
2023-04-21T12:03:50.793Z,5.76
2023-04-21T12:04:50.594Z,5.86
2023-04-21T12:05:50.633Z,5.72
2023-04-21T12:06:50.579Z,5.70
2023-04-21T12:07:50.611Z,5.59
2023-04-21T12:08:50.668Z,5.59
2023-04-21T12:09:50.689Z,5.69
2023-04-21T12:10:50.749Z,5.66
2023-04-21T12:11:50.767Z,5.72
2023-04-21T12:12:50.757Z,5.49
2023-04-21T12:13:50.790Z,5.46
2023-04-21T12:14:50.829Z,5.61
2023-04-21T12:15:51.511Z,5.71
2023-04-21T12:16:51.029Z,5.76
2023-04-21T12:17:50.961Z,5.67
2023-04-21T12:18:50.924Z,5.53
2023-04-21T12:19:50.996Z,5.37
2023-04-21T12:20:51.009Z,5.59
2023-04-21T12:21:51.015Z,5.53
2023-04-21T12:22:51.075Z,5.33
2023-04-21T12:23:51.072Z,5.24
2023-04-21T12:24:51.109Z,5.19
2023-04-21T12:25:51.136Z,5.34
2023-04-21T12:26:51.172Z,5.27
2023-04-21T12:27:51.301Z,5.33
2023-04-21T12:28:51.208Z,5.39
2023-04-21T12:29:51.210Z,5.26
2023-04-21T12:30:51.261Z,5.41
2023-04-21T12:31:51.283Z,5.48
2023-04-21T12:32:51.483Z,5.50
2023-04-21T12:33:51.342Z,5.44
2023-04-21T12:34:51.364Z,5.38
2023-04-21T12:35:51.385Z,5.34
2023-04-21T12:36:51.438Z,5.36
2023-04-21T12:37:51.450Z,5.00
2023-04-21T12:38:51.482Z,4.64
2023-04-21T12:39:51.503Z,4.66
2023-04-21T12:40:51.549Z,4.77
2023-04-21T12:41:51.661Z,4.94
2023-04-21T12:42:51.604Z,4.96
2023-04-21T12:43:51.626Z,4.98
2023-04-21T12:44:51.647Z,4.91
2023-04-21T12:45:51.755Z,5.03
2023-04-21T12:46:51.737Z,5.04
2023-04-21T12:47:51.808Z,5.04
2023-04-21T12:48:51.869Z,5.00
2023-04-21T12:49:51.841Z,4.86
2023-04-21T12:50:51.865Z,4.95
2023-04-21T12:51:51.908Z,4.93
2023-04-21T12:52:51.925Z,5.04
2023-04-21T12:53:51.997Z,5.03
2023-04-21T12:54:52.019Z,5.01
2023-04-21T12:56:03.411Z,4.93
2023-04-21T12:56:53.042Z,4.94
2023-04-21T12:57:52.004Z,4.87
2023-04-21T12:58:51.976Z,4.68
2023-04-21T12:59:51.930Z,4.65
2023-04-21T13:00:51.924Z,4.68
2023-04-21T13:01:51.951Z,4.66
2023-04-21T13:02:52.033Z,4.70
2023-04-21T13:03:51.920Z,4.84
2023-04-21T13:04:51.823Z,4.75
2023-04-21T13:05:51.903Z,4.66
2023-04-21T13:06:51.906Z,4.66
2023-04-21T13:07:51.948Z,4.68
2023-04-21T13:08:51.992Z,4.60
2023-04-21T13:09:52.031Z,4.61
2023-04-21T13:10:52.854Z,4.55
2023-04-21T13:11:52.166Z,4.59
2023-04-21T13:12:52.264Z,4.60
2023-04-21T13:13:52.264Z,4.65
2023-04-21T13:14:52.279Z,4.47
2023-04-21T13:15:52.320Z,4.13
2023-04-21T13:16:52.395Z,4.10
2023-04-21T13:17:52.411Z,4.56
2023-04-21T13:18:52.458Z,5.05